Aquasurazo — D5NA6 — position and weather

sailwx.info

Track history (hours):
 
Tides and Currents Weather Stations Pressure Air Temp Water Temp Dewpoint Dewpoint Depression Visibility Wind Speed Wind Dir Waves Ship Positions

Aquasurazo

Last reported at 2018-Feb-20 18:17 UTC. Time now 2018-Feb-20 21:39 UTC.
Position N 37°18' W 123°08'.

Length 244 m; draft 8.3 m.

Type: Tanker. MMSI: 636017858.

Date/timePositionNaut miles runAvg speedWind from/ knotsBaromVisibWave heightAir tempDewpointWater temp
2018-Feb-20 18:17N 37°18' W 123°08'413.1
2018-Feb-20 18:00N 37°21' W 123°07'713.1
2018-Feb-20 17:30N 37°28' W 123°06'612.7
2018-Feb-20 17:00N 37°34' W 123°04'612.3
2018-Feb-20 16:30N 37°37' W 122°57'612.5
2018-Feb-20 16:00N 37°41' W 122°51'612.5
2018-Feb-20 15:30N 37°44' W 122°44'611.7
2018-Feb-20 15:00N 37°46' W 122°37'816.1
2018-Feb-20 14:30N 37°49' W 122°28'611.2
2018-Feb-20 14:00N 37°55' W 122°27'714.2
2018-Feb-20 13:30N 38°01' W 122°23'612.2
2018-Feb-20 13:01N 38°04' W 122°16'4 7.5
2018-Feb-20 12:29N 38°03' W 122°11'  
2018-Feb-17 18:58N 38°02' W 122°08'0 0.0
2018-Feb-17 15:56N 38°02' W 122°08'0 0.5
2018-Feb-17 15:30N 38°02' W 122°08'2 3.1
2018-Feb-17 14:57N 38°02' W 122°10'3 6.2
2018-Feb-17 14:29N 38°04' W 122°14'4 8.5
2018-Feb-17 14:00N 38°03' W 122°19'4 8.3
2018-Feb-17 13:30N 38°01' W 122°23'5 9.1
2018-Feb-17 13:00N 37°58' W 122°27'4 8.1
2018-Feb-17 12:30N 37°54' W 122°26'5 9.1
2018-Feb-17 12:00N 37°49' W 122°25'4 7.5
2018-Feb-17 11:30N 37°49' W 122°30'510.8
2018-Feb-17 11:00N 37°46' W 122°36'510.1
2018-Feb-17 10:30N 37°44' W 122°41'5 9.5
2018-Feb-17 10:00N 37°41' W 122°46'611.6
2018-Feb-17 09:30N 37°38' W 122°52'713.3
2018-Feb-17 09:00N 37°34' W 122°59'611.5
2018-Feb-17 08:30N 37°30' W 123°04'612.7
2018-Feb-17 08:00N 37°24' W 123°01'611.2
2018-Feb-17 07:30N 37°19' W 122°59'3 6.8
2018-Feb-17 07:00N 37°16' W 122°57'612.7
2018-Feb-17 06:30N 37°10' W 122°54'612.7
2018-Feb-17 06:00N 37°04' W 122°52'612.9
2018-Feb-17 05:30N 36°58' W 122°49'612.6
2018-Feb-17 05:00N 36°52' W 122°46'612.3
2018-Feb-17 04:30N 36°46' W 122°43'612.1
2018-Feb-17 04:00N 36°41' W 122°40'612.2
2018-Feb-17 03:30N 36°35' W 122°38'612.3
2018-Feb-17 03:00N 36°29' W 122°35'612.1
2018-Feb-17 02:30N 36°23' W 122°33'612.1
2018-Feb-17 02:00N 36°18' W 122°30'612.1
2018-Feb-17 01:30N 36°12' W 122°28'612.3
2018-Feb-17 01:00N 36°06' W 122°25'612.2
2018-Feb-17 00:30N 36°01' W 122°22'612.1
2018-Feb-17 00:00N 35°55' W 122°20'612.2
2018-Feb-16 23:30N 35°49' W 122°17'612.4
2018-Feb-16 23:00N 35°43' W 122°14'612.5
2018-Feb-16 22:30N 35°38' W 122°11'612.8
2018-Feb-16 22:00N 35°31' W 122°09'713.2
2018-Feb-16 21:30N 35°25' W 122°06'712.8
2018-Feb-16 20:58N 35°19' W 122°03'612.9
2018-Feb-16 20:30N 35°13' W 122°00'1812.8
2018-Feb-16 19:07N 34°57' W 121°53'313.4
2018-Feb-16 18:51N 34°53' W 121°51'613.2
2018-Feb-16 18:26N 34°48' W 121°49'613.4
2018-Feb-16 18:00N 34°43' W 121°47'813.2
2018-Feb-16 17:26N 34°36' W 121°43'613.4
2018-Feb-16 17:00N 34°30' W 121°41'713.4
2018-Feb-16 16:30N 34°24' W 121°38'712.7
2018-Feb-16 15:59N 34°18' W 121°35'612.5
2018-Feb-16 15:31N 34°12' W 121°33'612.5
2018-Feb-16 15:01N 34°06' W 121°30'612.6
2018-Feb-16 14:31N 34°01' W 121°27'612.7
2018-Feb-16 14:01N 33°55' W 121°23'713.1
2018-Feb-16 13:30N 33°50' W 121°18'612.6
2018-Feb-16 13:00N 33°45' W 121°14'612.3
2018-Feb-16 12:29N 33°40' W 121°09'612.3
2018-Feb-16 12:01N 33°35' W 121°05'612.4
2018-Feb-16 11:30N 33°30' W 121°00'612.2
2018-Feb-16 11:00N 33°25' W 120°56'612.4
2018-Feb-16 10:30N 33°20' W 120°52'612.2
2018-Feb-16 10:01N 33°15' W 120°48'612.1
2018-Feb-16 09:31N 33°10' W 120°43'612.0
2018-Feb-16 09:00N 33°05' W 120°39'612.1
2018-Feb-16 08:29N 33°00' W 120°35'612.5
2018-Feb-16 08:01N 32°56' W 120°30'712.6
2018-Feb-16 07:26N 32°50' W 120°25'512.6
2018-Feb-16 07:01N 32°45' W 120°21'2112.5
2018-Feb-16 05:18N 32°28' W 120°07'412.5
2018-Feb-16 04:58N 32°25' W 120°03'912.5
2018-Feb-16 04:14N 32°17' W 119°57'2112.5
2018-Feb-16 02:35N 32°01' W 119°43'  
2018-Feb-13 09:41N 32°58' W 120°28'313.6
2018-Feb-13 09:30N 32°60' W 120°29'713.6
2018-Feb-13 09:00N 33°05' W 120°35'713.6
2018-Feb-13 08:30N 33°10' W 120°40'713.7
2018-Feb-13 08:01N 33°15' W 120°45'713.7
2018-Feb-13 07:30N 33°21' W 120°51'713.6
2018-Feb-13 07:00N 33°26' W 120°56'713.4
2018-Feb-13 06:30N 33°31' W 121°01'713.4
2018-Feb-13 06:00N 33°36' W 121°06'713.4
2018-Feb-13 05:30N 33°41' W 121°11'713.6
2018-Feb-13 05:00N 33°47' W 121°16'713.8
2018-Feb-13 04:30N 33°52' W 121°22'713.9
2018-Feb-13 04:00N 33°57' W 121°27'612.8
2018-Feb-13 03:31N 34°03' W 121°31'713.0
2018-Feb-13 03:00N 34°09' W 121°34'713.2
2018-Feb-13 02:31N 34°15' W 121°36'713.2
2018-Feb-13 02:00N 34°21' W 121°39'713.2
2018-Feb-13 01:30N 34°27' W 121°42'713.0
2018-Feb-13 01:00N 34°33' W 121°45'713.0
2018-Feb-13 00:29N 34°40' W 121°48'713.3
2018-Feb-12 23:58N 34°46' W 121°51'14113.8
2018-Feb-12 13:46N 36°58' W 122°50'413.7
2018-Feb-12 13:30N 37°02' W 122°52'713.9
2018-Feb-12 12:58N 37°09' W 122°55'714.0
2018-Feb-12 12:28N 37°15' W 122°58'814.2
2018-Feb-12 11:53N 37°23' W 123°02'514.4
2018-Feb-12 11:30N 37°28' W 123°03'612.1
2018-Feb-12 11:00N 37°34' W 123°03'713.2
2018-Feb-12 10:30N 37°38' W 122°56'612.7
2018-Feb-12 10:00N 37°41' W 122°49'612.4
2018-Feb-12 09:31N 37°44' W 122°42'510.1
2018-Feb-12 09:00N 37°46' W 122°36'815.5
2018-Feb-12 08:31N 37°50' W 122°28'611.0
2018-Feb-12 08:01N 37°55' W 122°27'612.9
2018-Feb-12 07:31N 38°01' W 122°24'612.0
2018-Feb-12 07:00N 38°04' W 122°17'610.7
2018-Feb-12 06:26N 38°02' W 122°09'2 3.5
2018-Feb-12 05:58N 38°02' W 122°07'0 0.0
2018-Feb-11 02:58N 38°02' W 122°07'1 1.2
2018-Feb-11 02:29N 38°02' W 122°08'4 6.0
2018-Feb-11 01:50N 38°04' W 122°13'3 8.4
2018-Feb-11 01:30N 38°04' W 122°16'4 8.5
2018-Feb-11 01:00N 38°02' W 122°21'4 8.5
2018-Feb-11 00:30N 37°60' W 122°25'4 7.9
2018-Feb-11 00:00N 37°56' W 122°27'4 8.1
2018-Feb-10 23:30N 37°52' W 122°25'510.8
2018-Feb-10 23:00N 37°47' W 122°22'2 2.9
2018-Feb-10 22:29N 37°46' W 122°21'0 0.1
2018-Feb-10 21:59N 37°46' W 122°21'0 0.0
2018-Feb-10 21:29N 37°46' W 122°21'0 0.1
2018-Feb-10 20:59N 37°46' W 122°21'0 0.0
2018-Feb-10 20:29N 37°46' W 122°21'0 0.0
2018-Feb-10 19:59N 37°46' W 122°21'0 0.0
2018-Feb-10 19:29N 37°46' W 122°21'0 0.1
2018-Feb-10 18:59N 37°46' W 122°21'0 0.0
2018-Feb-10 18:29N 37°46' W 122°21'  
Track history (hours):
 
Tides and Currents Weather Stations Pressure Air Temp Water Temp Dewpoint Dewpoint Depression Visibility Wind Speed Wind Dir Waves Ship Positions

Aquasurazo

Last reported at 2018-Feb-20 18:17 UTC. Time now 2018-Feb-20 21:39 UTC.
Position N 37°18' W 123°08'.

Length 244 m; draft 8.3 m.

Type: Tanker. MMSI: 636017858.

Date/timePositionNaut miles runAvg speedWind from/ knotsBaromVisibWave heightAir tempDewpointWater temp
2018-Feb-20 18:17N 37°18' W 123°08'413.1
2018-Feb-20 18:00N 37°21' W 123°07'713.1
2018-Feb-20 17:30N 37°28' W 123°06'612.7
2018-Feb-20 17:00N 37°34' W 123°04'612.3
2018-Feb-20 16:30N 37°37' W 122°57'612.5
2018-Feb-20 16:00N 37°41' W 122°51'612.5
2018-Feb-20 15:30N 37°44' W 122°44'611.7
2018-Feb-20 15:00N 37°46' W 122°37'816.1
2018-Feb-20 14:30N 37°49' W 122°28'611.2
2018-Feb-20 14:00N 37°55' W 122°27'714.2
2018-Feb-20 13:30N 38°01' W 122°23'612.2
2018-Feb-20 13:01N 38°04' W 122°16'4 7.5
2018-Feb-20 12:29N 38°03' W 122°11'  
2018-Feb-17 18:58N 38°02' W 122°08'0 0.0
2018-Feb-17 15:56N 38°02' W 122°08'0 0.5
2018-Feb-17 15:30N 38°02' W 122°08'2 3.1
2018-Feb-17 14:57N 38°02' W 122°10'3 6.2
2018-Feb-17 14:29N 38°04' W 122°14'4 8.5
2018-Feb-17 14:00N 38°03' W 122°19'4 8.3
2018-Feb-17 13:30N 38°01' W 122°23'5 9.1
2018-Feb-17 13:00N 37°58' W 122°27'4 8.1
2018-Feb-17 12:30N 37°54' W 122°26'5 9.1
2018-Feb-17 12:00N 37°49' W 122°25'4 7.5
2018-Feb-17 11:30N 37°49' W 122°30'510.8
2018-Feb-17 11:00N 37°46' W 122°36'510.1
2018-Feb-17 10:30N 37°44' W 122°41'5 9.5
2018-Feb-17 10:00N 37°41' W 122°46'611.6
2018-Feb-17 09:30N 37°38' W 122°52'713.3
2018-Feb-17 09:00N 37°34' W 122°59'611.5
2018-Feb-17 08:30N 37°30' W 123°04'612.7
2018-Feb-17 08:00N 37°24' W 123°01'611.2
2018-Feb-17 07:30N 37°19' W 122°59'3 6.8
2018-Feb-17 07:00N 37°16' W 122°57'612.7
2018-Feb-17 06:30N 37°10' W 122°54'612.7
2018-Feb-17 06:00N 37°04' W 122°52'612.9
2018-Feb-17 05:30N 36°58' W 122°49'612.6
2018-Feb-17 05:00N 36°52' W 122°46'612.3
2018-Feb-17 04:30N 36°46' W 122°43'612.1
2018-Feb-17 04:00N 36°41' W 122°40'612.2
2018-Feb-17 03:30N 36°35' W 122°38'612.3
2018-Feb-17 03:00N 36°29' W 122°35'612.1
2018-Feb-17 02:30N 36°23' W 122°33'612.1
2018-Feb-17 02:00N 36°18' W 122°30'612.1
2018-Feb-17 01:30N 36°12' W 122°28'612.3
2018-Feb-17 01:00N 36°06' W 122°25'612.2
2018-Feb-17 00:30N 36°01' W 122°22'612.1
2018-Feb-17 00:00N 35°55' W 122°20'612.2
2018-Feb-16 23:30N 35°49' W 122°17'612.4
2018-Feb-16 23:00N 35°43' W 122°14'612.5
2018-Feb-16 22:30N 35°38' W 122°11'612.8
2018-Feb-16 22:00N 35°31' W 122°09'713.2
2018-Feb-16 21:30N 35°25' W 122°06'712.8
2018-Feb-16 20:58N 35°19' W 122°03'612.9
2018-Feb-16 20:30N 35°13' W 122°00'1812.8
2018-Feb-16 19:07N 34°57' W 121°53'313.4
2018-Feb-16 18:51N 34°53' W 121°51'613.2
2018-Feb-16 18:26N 34°48' W 121°49'613.4
2018-Feb-16 18:00N 34°43' W 121°47'813.2
2018-Feb-16 17:26N 34°36' W 121°43'613.4
2018-Feb-16 17:00N 34°30' W 121°41'713.4
2018-Feb-16 16:30N 34°24' W 121°38'712.7
2018-Feb-16 15:59N 34°18' W 121°35'612.5
2018-Feb-16 15:31N 34°12' W 121°33'612.5
2018-Feb-16 15:01N 34°06' W 121°30'612.6
2018-Feb-16 14:31N 34°01' W 121°27'612.7
2018-Feb-16 14:01N 33°55' W 121°23'713.1
2018-Feb-16 13:30N 33°50' W 121°18'612.6
2018-Feb-16 13:00N 33°45' W 121°14'612.3
2018-Feb-16 12:29N 33°40' W 121°09'612.3
2018-Feb-16 12:01N 33°35' W 121°05'612.4
2018-Feb-16 11:30N 33°30' W 121°00'612.2
2018-Feb-16 11:00N 33°25' W 120°56'612.4
2018-Feb-16 10:30N 33°20' W 120°52'612.2
2018-Feb-16 10:01N 33°15' W 120°48'612.1
2018-Feb-16 09:31N 33°10' W 120°43'612.0
2018-Feb-16 09:00N 33°05' W 120°39'612.1
2018-Feb-16 08:29N 33°00' W 120°35'612.5
2018-Feb-16 08:01N 32°56' W 120°30'712.6
2018-Feb-16 07:26N 32°50' W 120°25'512.6
2018-Feb-16 07:01N 32°45' W 120°21'2112.5
2018-Feb-16 05:18N 32°28' W 120°07'412.5
2018-Feb-16 04:58N 32°25' W 120°03'912.5
2018-Feb-16 04:14N 32°17' W 119°57'2112.5
2018-Feb-16 02:35N 32°01' W 119°43'  
2018-Feb-13 09:41N 32°58' W 120°28'313.6
2018-Feb-13 09:30N 32°60' W 120°29'713.6
2018-Feb-13 09:00N 33°05' W 120°35'713.6
2018-Feb-13 08:30N 33°10' W 120°40'713.7
2018-Feb-13 08:01N 33°15' W 120°45'713.7
2018-Feb-13 07:30N 33°21' W 120°51'713.6
2018-Feb-13 07:00N 33°26' W 120°56'713.4
2018-Feb-13 06:30N 33°31' W 121°01'713.4
2018-Feb-13 06:00N 33°36' W 121°06'713.4
2018-Feb-13 05:30N 33°41' W 121°11'713.6
2018-Feb-13 05:00N 33°47' W 121°16'713.8
2018-Feb-13 04:30N 33°52' W 121°22'713.9
2018-Feb-13 04:00N 33°57' W 121°27'612.8
2018-Feb-13 03:31N 34°03' W 121°31'713.0
2018-Feb-13 03:00N 34°09' W 121°34'713.2
2018-Feb-13 02:31N 34°15' W 121°36'713.2
2018-Feb-13 02:00N 34°21' W 121°39'713.2
2018-Feb-13 01:30N 34°27' W 121°42'713.0
2018-Feb-13 01:00N 34°33' W 121°45'713.0
2018-Feb-13 00:29N 34°40' W 121°48'713.3
2018-Feb-12 23:58N 34°46' W 121°51'14113.8
2018-Feb-12 13:46N 36°58' W 122°50'413.7
2018-Feb-12 13:30N 37°02' W 122°52'713.9
2018-Feb-12 12:58N 37°09' W 122°55'714.0
2018-Feb-12 12:28N 37°15' W 122°58'814.2
2018-Feb-12 11:53N 37°23' W 123°02'514.4
2018-Feb-12 11:30N 37°28' W 123°03'612.1
2018-Feb-12 11:00N 37°34' W 123°03'713.2
2018-Feb-12 10:30N 37°38' W 122°56'612.7
2018-Feb-12 10:00N 37°41' W 122°49'612.4
2018-Feb-12 09:31N 37°44' W 122°42'510.1
2018-Feb-12 09:00N 37°46' W 122°36'815.5
2018-Feb-12 08:31N 37°50' W 122°28'611.0
2018-Feb-12 08:01N 37°55' W 122°27'612.9
2018-Feb-12 07:31N 38°01' W 122°24'612.0
2018-Feb-12 07:00N 38°04' W 122°17'610.7
2018-Feb-12 06:26N 38°02' W 122°09'2 3.5
2018-Feb-12 05:58N 38°02' W 122°07'0 0.0
2018-Feb-11 02:58N 38°02' W 122°07'1 1.2
2018-Feb-11 02:29N 38°02' W 122°08'4 6.0
2018-Feb-11 01:50N 38°04' W 122°13'3 8.4
2018-Feb-11 01:30N 38°04' W 122°16'4 8.5
2018-Feb-11 01:00N 38°02' W 122°21'4 8.5
2018-Feb-11 00:30N 37°60' W 122°25'4 7.9
2018-Feb-11 00:00N 37°56' W 122°27'4 8.1
2018-Feb-10 23:30N 37°52' W 122°25'510.8
2018-Feb-10 23:00N 37°47' W 122°22'2 2.9
2018-Feb-10 22:29N 37°46' W 122°21'0 0.1
2018-Feb-10 21:59N 37°46' W 122°21'0 0.0
2018-Feb-10 21:29N 37°46' W 122°21'0 0.1
2018-Feb-10 20:59N 37°46' W 122°21'0 0.0
2018-Feb-10 20:29N 37°46' W 122°21'0 0.0
2018-Feb-10 19:59N 37°46' W 122°21'0 0.0
2018-Feb-10 19:29N 37°46' W 122°21'0 0.1
2018-Feb-10 18:59N 37°46' W 122°21'0 0.0
2018-Feb-10 18:29N 37°46' W 122°21'  

Dump ship's entire track history